sensor_id;sensor_type;location;lat;lon;timestamp;P1;durP1;ratioP1;P2;durP2;ratioP2
55372;SDS011;41249;47.838;16.490;2022-10-18T00:00:03;7.07;;;4.07;;
55372;SDS011;41249;47.838;16.490;2022-10-18T00:02:31;8.50;;;4.90;;
55372;SDS011;41249;47.838;16.490;2022-10-18T00:04:58;7.25;;;4.53;;
55372;SDS011;41249;47.838;16.490;2022-10-18T00:07:24;9.00;;;4.38;;
55372;SDS011;41249;47.838;16.490;2022-10-18T00:09:51;7.18;;;3.83;;
55372;SDS011;41249;47.838;16.490;2022-10-18T00:12:18;7.80;;;4.43;;
55372;SDS011;41249;47.838;16.490;2022-10-18T00:14:46;6.10;;;3.78;;
55372;SDS011;41249;47.838;16.490;2022-10-18T00:17:14;5.10;;;3.60;;
55372;SDS011;41249;47.838;16.490;2022-10-18T00:19:41;6.18;;;4.65;;
55372;SDS011;41249;47.838;16.490;2022-10-18T00:22:07;7.55;;;4.30;;
55372;SDS011;41249;47.838;16.490;2022-10-18T00:24:34;6.47;;;4.28;;
55372;SDS011;41249;47.838;16.490;2022-10-18T00:27:00;11.68;;;4.65;;
55372;SDS011;41249;47.838;16.490;2022-10-18T00:29:27;5.85;;;3.75;;
55372;SDS011;41249;47.838;16.490;2022-10-18T00:31:54;11.25;;;4.22;;
55372;SDS011;41249;47.838;16.490;2022-10-18T00:34:20;6.65;;;4.00;;
55372;SDS011;41249;47.838;16.490;2022-10-18T00:36:47;5.32;;;3.70;;
55372;SDS011;41249;47.838;16.490;2022-10-18T00:39:17;5.85;;;3.75;;
55372;SDS011;41249;47.838;16.490;2022-10-18T00:41:45;10.25;;;4.40;;
55372;SDS011;41249;47.838;16.490;2022-10-18T00:46:43;6.18;;;3.60;;
55372;SDS011;41249;47.838;16.490;2022-10-18T00:49:15;6.10;;;3.60;;
55372;SDS011;41249;47.838;16.490;2022-10-18T00:54:14;6.38;;;3.92;;
55372;SDS011;41249;47.838;16.490;2022-10-18T00:56:42;9.65;;;4.38;;
55372;SDS011;41249;47.838;16.490;2022-10-18T00:59:10;7.90;;;5.10;;
55372;SDS011;41249;47.838;16.490;2022-10-18T01:01:40;6.35;;;4.53;;
55372;SDS011;41249;47.838;16.490;2022-10-18T01:04:07;7.65;;;4.35;;
55372;SDS011;41249;47.838;16.490;2022-10-18T01:06:36;7.57;;;4.85;;
55372;SDS011;41249;47.838;16.490;2022-10-18T01:09:20;6.95;;;4.10;;
55372;SDS011;41249;47.838;16.490;2022-10-18T01:20:33;6.55;;;3.97;;
55372;SDS011;41249;47.838;16.490;2022-10-18T01:26:02;21.08;;;4.65;;
55372;SDS011;41249;47.838;16.490;2022-10-18T01:31:42;6.38;;;4.07;;
55372;SDS011;41249;47.838;16.490;2022-10-18T01:34:25;5.18;;;3.95;;
55372;SDS011;41249;47.838;16.490;2022-10-18T01:36:56;6.32;;;4.43;;
55372;SDS011;41249;47.838;16.490;2022-10-18T01:39:30;9.68;;;4.25;;
55372;SDS011;41249;47.838;16.490;2022-10-18T01:42:00;6.88;;;4.28;;
55372;SDS011;41249;47.838;16.490;2022-10-18T01:44:31;6.60;;;4.15;;
55372;SDS011;41249;47.838;16.490;2022-10-18T01:47:00;9.25;;;5.28;;
55372;SDS011;41249;47.838;16.490;2022-10-18T01:49:26;6.60;;;3.90;;
55372;SDS011;41249;47.838;16.490;2022-10-18T01:51:53;6.22;;;4.38;;
55372;SDS011;41249;47.838;16.490;2022-10-18T01:54:24;7.68;;;4.82;;
55372;SDS011;41249;47.838;16.490;2022-10-18T01:57:04;6.25;;;4.10;;
55372;SDS011;41249;47.838;16.490;2022-10-18T02:02:45;10.00;;;4.85;;
55372;SDS011;41249;47.838;16.490;2022-10-18T02:08:08;7.95;;;4.80;;
55372;SDS011;41249;47.838;16.490;2022-10-18T02:16:13;7.57;;;4.00;;
55372;SDS011;41249;47.838;16.490;2022-10-18T02:18:45;8.55;;;4.38;;
55372;SDS011;41249;47.838;16.490;2022-10-18T02:21:17;7.15;;;4.38;;
55372;SDS011;41249;47.838;16.490;2022-10-18T02:23:46;6.68;;;5.07;;
55372;SDS011;41249;47.838;16.490;2022-10-18T02:26:14;8.63;;;4.00;;
55372;SDS011;41249;47.838;16.490;2022-10-18T02:28:42;9.27;;;4.43;;
55372;SDS011;41249;47.838;16.490;2022-10-18T02:33:50;7.30;;;4.88;;
55372;SDS011;41249;47.838;16.490;2022-10-18T02:36:23;8.65;;;5.18;;
55372;SDS011;41249;47.838;16.490;2022-10-18T02:38:55;7.47;;;4.45;;
55372;SDS011;41249;47.838;16.490;2022-10-18T02:41:29;8.32;;;4.88;;
55372;SDS011;41249;47.838;16.490;2022-10-18T02:43:56;9.82;;;4.75;;
55372;SDS011;41249;47.838;16.490;2022-10-18T02:46:23;8.05;;;4.38;;
55372;SDS011;41249;47.838;16.490;2022-10-18T02:48:50;9.70;;;5.13;;
55372;SDS011;41249;47.838;16.490;2022-10-18T02:51:16;6.43;;;4.40;;
55372;SDS011;41249;47.838;16.490;2022-10-18T02:53:43;10.15;;;4.90;;
55372;SDS011;41249;47.838;16.490;2022-10-18T02:56:09;8.98;;;4.47;;
55372;SDS011;41249;47.838;16.490;2022-10-18T02:58:36;8.30;;;5.18;;
55372;SDS011;41249;47.838;16.490;2022-10-18T03:01:02;10.40;;;4.50;;
55372;SDS011;41249;47.838;16.490;2022-10-18T03:03:29;7.25;;;4.53;;
55372;SDS011;41249;47.838;16.490;2022-10-18T03:05:56;15.07;;;4.80;;
55372;SDS011;41249;47.838;16.490;2022-10-18T03:08:22;6.25;;;4.15;;
55372;SDS011;41249;47.838;16.490;2022-10-18T03:10:49;7.20;;;4.30;;
55372;SDS011;41249;47.838;16.490;2022-10-18T03:13:15;10.00;;;5.47;;
55372;SDS011;41249;47.838;16.490;2022-10-18T03:15:42;6.88;;;5.10;;
55372;SDS011;41249;47.838;16.490;2022-10-18T03:18:09;8.30;;;5.35;;
55372;SDS011;41249;47.838;16.490;2022-10-18T03:20:35;9.27;;;5.47;;
55372;SDS011;41249;47.838;16.490;2022-10-18T03:23:02;7.47;;;5.53;;
55372;SDS011;41249;47.838;16.490;2022-10-18T03:25:29;7.65;;;5.55;;
55372;SDS011;41249;47.838;16.490;2022-10-18T03:27:56;7.35;;;4.38;;
55372;SDS011;41249;47.838;16.490;2022-10-18T03:30:22;10.60;;;4.68;;
55372;SDS011;41249;47.838;16.490;2022-10-18T03:32:49;8.32;;;4.18;;
55372;SDS011;41249;47.838;16.490;2022-10-18T03:35:15;7.85;;;5.35;;
55372;SDS011;41249;47.838;16.490;2022-10-18T03:37:42;6.70;;;4.47;;
55372;SDS011;41249;47.838;16.490;2022-10-18T03:40:09;10.70;;;4.72;;
55372;SDS011;41249;47.838;16.490;2022-10-18T03:42:35;7.35;;;4.60;;
55372;SDS011;41249;47.838;16.490;2022-10-18T03:45:02;12.50;;;4.60;;
55372;SDS011;41249;47.838;16.490;2022-10-18T03:47:29;8.73;;;5.22;;
55372;SDS011;41249;47.838;16.490;2022-10-18T03:49:56;6.68;;;4.07;;
55372;SDS011;41249;47.838;16.490;2022-10-18T03:52:23;6.13;;;4.32;;
55372;SDS011;41249;47.838;16.490;2022-10-18T03:54:49;6.32;;;4.60;;
55372;SDS011;41249;47.838;16.490;2022-10-18T03:57:16;7.78;;;5.03;;
55372;SDS011;41249;47.838;16.490;2022-10-18T03:59:42;6.10;;;4.00;;
55372;SDS011;41249;47.838;16.490;2022-10-18T04:02:09;7.43;;;4.32;;
55372;SDS011;41249;47.838;16.490;2022-10-18T04:04:35;6.85;;;5.00;;
55372;SDS011;41249;47.838;16.490;2022-10-18T04:07:02;6.35;;;4.55;;
55372;SDS011;41249;47.838;16.490;2022-10-18T04:09:28;5.43;;;3.70;;
55372;SDS011;41249;47.838;16.490;2022-10-18T04:11:55;9.65;;;5.43;;
55372;SDS011;41249;47.838;16.490;2022-10-18T04:14:22;12.20;;;6.10;;
55372;SDS011;41249;47.838;16.490;2022-10-18T04:16:50;8.70;;;5.18;;
55372;SDS011;41249;47.838;16.490;2022-10-18T04:19:17;7.85;;;5.35;;
55372;SDS011;41249;47.838;16.490;2022-10-18T04:21:44;10.23;;;5.95;;
55372;SDS011;41249;47.838;16.490;2022-10-18T04:24:10;7.15;;;5.15;;
55372;SDS011;41249;47.838;16.490;2022-10-18T04:26:37;7.68;;;4.70;;
55372;SDS011;41249;47.838;16.490;2022-10-18T04:29:03;9.02;;;5.50;;
55372;SDS011;41249;47.838;16.490;2022-10-18T04:31:32;8.18;;;4.90;;
55372;SDS011;41249;47.838;16.490;2022-10-18T04:33:58;6.20;;;4.47;;
55372;SDS011;41249;47.838;16.490;2022-10-18T04:36:25;8.45;;;5.65;;
55372;SDS011;41249;47.838;16.490;2022-10-18T04:38:51;7.15;;;5.07;;
55372;SDS011;41249;47.838;16.490;2022-10-18T04:41:18;9.73;;;5.70;;
55372;SDS011;41249;47.838;16.490;2022-10-18T04:43:45;8.15;;;5.38;;
55372;SDS011;41249;47.838;16.490;2022-10-18T04:46:12;9.82;;;5.65;;
55372;SDS011;41249;47.838;16.490;2022-10-18T04:48:39;8.80;;;5.07;;
55372;SDS011;41249;47.838;16.490;2022-10-18T04:51:05;8.50;;;5.68;;
55372;SDS011;41249;47.838;16.490;2022-10-18T04:53:32;8.48;;;5.85;;
55372;SDS011;41249;47.838;16.490;2022-10-18T04:55:58;8.30;;;5.25;;
55372;SDS011;41249;47.838;16.490;2022-10-18T04:58:25;9.57;;;5.63;;
55372;SDS011;41249;47.838;16.490;2022-10-18T05:00:51;13.52;;;5.63;;
55372;SDS011;41249;47.838;16.490;2022-10-18T05:03:18;7.75;;;5.10;;
55372;SDS011;41249;47.838;16.490;2022-10-18T05:05:45;9.02;;;5.47;;
55372;SDS011;41249;47.838;16.490;2022-10-18T05:08:28;15.07;;;6.18;;
55372;SDS011;41249;47.838;16.490;2022-10-18T05:10:55;8.13;;;5.63;;
55372;SDS011;41249;47.838;16.490;2022-10-18T05:13:22;7.60;;;5.20;;
55372;SDS011;41249;47.838;16.490;2022-10-18T05:15:48;8.75;;;5.38;;
55372;SDS011;41249;47.838;16.490;2022-10-18T05:18:15;9.50;;;5.38;;
55372;SDS011;41249;47.838;16.490;2022-10-18T05:20:42;9.85;;;5.22;;
55372;SDS011;41249;47.838;16.490;2022-10-18T05:23:08;11.77;;;5.53;;
55372;SDS011;41249;47.838;16.490;2022-10-18T05:25:39;11.35;;;6.20;;
55372;SDS011;41249;47.838;16.490;2022-10-18T05:28:07;9.88;;;5.18;;
55372;SDS011;41249;47.838;16.490;2022-10-18T05:30:54;9.88;;;6.35;;
55372;SDS011;41249;47.838;16.490;2022-10-18T05:33:21;12.73;;;5.45;;
55372;SDS011;41249;47.838;16.490;2022-10-18T05:35:47;10.48;;;5.43;;
55372;SDS011;41249;47.838;16.490;2022-10-18T05:38:14;8.98;;;5.40;;
55372;SDS011;41249;47.838;16.490;2022-10-18T05:40:41;6.82;;;5.28;;
55372;SDS011;41249;47.838;16.490;2022-10-18T05:43:07;11.50;;;4.72;;
55372;SDS011;41249;47.838;16.490;2022-10-18T05:45:34;10.02;;;4.85;;
55372;SDS011;41249;47.838;16.490;2022-10-18T05:48:00;7.78;;;4.18;;
55372;SDS011;41249;47.838;16.490;2022-10-18T05:50:27;8.88;;;5.40;;
55372;SDS011;41249;47.838;16.490;2022-10-18T05:52:54;7.50;;;5.10;;
55372;SDS011;41249;47.838;16.490;2022-10-18T05:55:37;6.05;;;4.65;;
55372;SDS011;41249;47.838;16.490;2022-10-18T05:58:04;7.05;;;4.93;;
55372;SDS011;41249;47.838;16.490;2022-10-18T06:00:31;6.47;;;5.05;;
55372;SDS011;41249;47.838;16.490;2022-10-18T06:02:57;5.88;;;4.20;;
55372;SDS011;41249;47.838;16.490;2022-10-18T06:05:25;7.18;;;5.20;;
55372;SDS011;41249;47.838;16.490;2022-10-18T06:07:52;8.82;;;5.10;;
55372;SDS011;41249;47.838;16.490;2022-10-18T06:10:19;9.07;;;5.25;;
55372;SDS011;41249;47.838;16.490;2022-10-18T06:12:46;8.15;;;4.57;;
55372;SDS011;41249;47.838;16.490;2022-10-18T06:15:12;13.40;;;5.15;;
55372;SDS011;41249;47.838;16.490;2022-10-18T06:17:39;7.35;;;4.72;;
55372;SDS011;41249;47.838;16.490;2022-10-18T06:20:06;6.63;;;4.30;;
55372;SDS011;41249;47.838;16.490;2022-10-18T06:22:33;8.50;;;5.63;;
55372;SDS011;41249;47.838;16.490;2022-10-18T06:25:00;13.98;;;5.43;;
55372;SDS011;41249;47.838;16.490;2022-10-18T06:27:26;8.48;;;5.65;;
55372;SDS011;41249;47.838;16.490;2022-10-18T06:29:53;10.88;;;5.00;;
55372;SDS011;41249;47.838;16.490;2022-10-18T06:32:19;9.32;;;5.57;;
55372;SDS011;41249;47.838;16.490;2022-10-18T06:34:46;7.50;;;5.10;;
55372;SDS011;41249;47.838;16.490;2022-10-18T06:37:12;5.70;;;3.72;;
55372;SDS011;41249;47.838;16.490;2022-10-18T06:39:39;9.77;;;5.13;;
55372;SDS011;41249;47.838;16.490;2022-10-18T06:42:06;10.63;;;5.55;;
55372;SDS011;41249;47.838;16.490;2022-10-18T06:44:33;10.68;;;5.20;;
55372;SDS011;41249;47.838;16.490;2022-10-18T06:46:59;7.43;;;5.35;;
55372;SDS011;41249;47.838;16.490;2022-10-18T06:49:26;8.77;;;4.82;;
55372;SDS011;41249;47.838;16.490;2022-10-18T06:51:53;5.97;;;3.88;;
55372;SDS011;41249;47.838;16.490;2022-10-18T06:54:19;6.43;;;4.45;;
55372;SDS011;41249;47.838;16.490;2022-10-18T06:56:46;7.38;;;3.85;;
55372;SDS011;41249;47.838;16.490;2022-10-18T06:59:12;8.10;;;4.68;;
55372;SDS011;41249;47.838;16.490;2022-10-18T07:01:39;5.50;;;4.15;;
55372;SDS011;41249;47.838;16.490;2022-10-18T07:04:06;7.80;;;4.72;;
55372;SDS011;41249;47.838;16.490;2022-10-18T07:06:32;8.30;;;5.13;;
55372;SDS011;41249;47.838;16.490;2022-10-18T07:08:59;8.57;;;4.53;;
55372;SDS011;41249;47.838;16.490;2022-10-18T07:11:28;8.77;;;4.15;;
55372;SDS011;41249;47.838;16.490;2022-10-18T07:13:57;9.20;;;4.35;;
55372;SDS011;41249;47.838;16.490;2022-10-18T07:16:29;5.32;;;3.92;;
55372;SDS011;41249;47.838;16.490;2022-10-18T07:18:57;9.75;;;4.28;;
55372;SDS011;41249;47.838;16.490;2022-10-18T07:21:24;7.47;;;3.72;;
55372;SDS011;41249;47.838;16.490;2022-10-18T07:23:51;9.63;;;4.88;;
55372;SDS011;41249;47.838;16.490;2022-10-18T07:26:22;6.30;;;4.32;;
55372;SDS011;41249;47.838;16.490;2022-10-18T07:28:52;6.45;;;4.10;;
55372;SDS011;41249;47.838;16.490;2022-10-18T07:31:21;8.60;;;4.38;;
55372;SDS011;41249;47.838;16.490;2022-10-18T07:33:48;9.35;;;4.75;;
55372;SDS011;41249;47.838;16.490;2022-10-18T07:36:14;7.90;;;4.07;;
55372;SDS011;41249;47.838;16.490;2022-10-18T07:38:41;9.05;;;4.38;;
55372;SDS011;41249;47.838;16.490;2022-10-18T07:41:09;5.40;;;3.78;;
55372;SDS011;41249;47.838;16.490;2022-10-18T07:43:40;6.82;;;4.05;;
55372;SDS011;41249;47.838;16.490;2022-10-18T07:46:07;7.65;;;4.50;;
55372;SDS011;41249;47.838;16.490;2022-10-18T07:48:34;5.93;;;4.18;;
55372;SDS011;41249;47.838;16.490;2022-10-18T07:51:01;8.13;;;3.55;;
55372;SDS011;41249;47.838;16.490;2022-10-18T07:53:28;5.45;;;4.18;;
55372;SDS011;41249;47.838;16.490;2022-10-18T07:55:56;6.82;;;4.47;;
55372;SDS011;41249;47.838;16.490;2022-10-18T07:58:30;8.02;;;4.20;;
55372;SDS011;41249;47.838;16.490;2022-10-18T08:01:04;8.35;;;4.80;;
55372;SDS011;41249;47.838;16.490;2022-10-18T08:03:33;7.28;;;4.30;;
55372;SDS011;41249;47.838;16.490;2022-10-18T08:06:01;6.35;;;4.07;;
55372;SDS011;41249;47.838;16.490;2022-10-18T08:08:28;7.43;;;3.63;;
55372;SDS011;41249;47.838;16.490;2022-10-18T08:11:00;5.03;;;3.80;;
55372;SDS011;41249;47.838;16.490;2022-10-18T08:13:28;7.65;;;4.22;;
55372;SDS011;41249;47.838;16.490;2022-10-18T08:15:59;7.25;;;4.13;;
55372;SDS011;41249;47.838;16.490;2022-10-18T08:18:40;9.10;;;4.20;;
55372;SDS011;41249;47.838;16.490;2022-10-18T08:21:08;7.57;;;4.15;;
55372;SDS011;41249;47.838;16.490;2022-10-18T08:23:36;7.05;;;4.25;;
55372;SDS011;41249;47.838;16.490;2022-10-18T08:26:04;7.90;;;4.47;;
55372;SDS011;41249;47.838;16.490;2022-10-18T08:28:33;8.75;;;4.55;;
55372;SDS011;41249;47.838;16.490;2022-10-18T08:31:03;7.75;;;4.65;;
55372;SDS011;41249;47.838;16.490;2022-10-18T08:33:31;8.00;;;4.35;;
55372;SDS011;41249;47.838;16.490;2022-10-18T08:36:00;8.10;;;3.90;;
55372;SDS011;41249;47.838;16.490;2022-10-18T08:38:31;6.00;;;4.55;;
55372;SDS011;41249;47.838;16.490;2022-10-18T08:41:11;7.72;;;4.93;;
55372;SDS011;41249;47.838;16.490;2022-10-18T08:46:37;6.65;;;4.65;;
55372;SDS011;41249;47.838;16.490;2022-10-18T08:49:35;7.28;;;4.43;;
55372;SDS011;41249;47.838;16.490;2022-10-18T08:52:17;7.32;;;3.95;;
55372;SDS011;41249;47.838;16.490;2022-10-18T08:54:59;7.30;;;3.80;;
55372;SDS011;41249;47.838;16.490;2022-10-18T08:57:27;9.43;;;4.25;;
55372;SDS011;41249;47.838;16.490;2022-10-18T08:59:56;8.48;;;4.00;;
55372;SDS011;41249;47.838;16.490;2022-10-18T09:02:38;4.85;;;4.20;;
55372;SDS011;41249;47.838;16.490;2022-10-18T09:05:24;8.48;;;4.22;;
55372;SDS011;41249;47.838;16.490;2022-10-18T09:11:06;6.55;;;4.22;;
55372;SDS011;41249;47.838;16.490;2022-10-18T09:16:01;9.68;;;4.35;;
55372;SDS011;41249;47.838;16.490;2022-10-18T09:26:15;8.02;;;4.72;;
55372;SDS011;41249;47.838;16.490;2022-10-18T09:31:45;7.30;;;4.80;;
55372;SDS011;41249;47.838;16.490;2022-10-18T09:34:31;7.85;;;5.05;;
55372;SDS011;41249;47.838;16.490;2022-10-18T09:37:04;6.10;;;4.70;;
55372;SDS011;41249;47.838;16.490;2022-10-18T09:39:37;6.22;;;4.13;;
55372;SDS011;41249;47.838;16.490;2022-10-18T09:42:21;7.07;;;4.60;;
55372;SDS011;41249;47.838;16.490;2022-10-18T09:44:54;9.25;;;4.43;;
55372;SDS011;41249;47.838;16.490;2022-10-18T09:47:28;6.38;;;4.93;;
55372;SDS011;41249;47.838;16.490;2022-10-18T09:50:02;7.50;;;4.20;;
55372;SDS011;41249;47.838;16.490;2022-10-18T09:53:25;8.13;;;4.57;;
55372;SDS011;41249;47.838;16.490;2022-10-18T09:55:59;10.63;;;4.70;;
55372;SDS011;41249;47.838;16.490;2022-10-18T09:58:34;7.60;;;5.60;;
55372;SDS011;41249;47.838;16.490;2022-10-18T10:01:09;12.10;;;4.68;;
55372;SDS011;41249;47.838;16.490;2022-10-18T10:03:38;7.10;;;5.38;;
55372;SDS011;41249;47.838;16.490;2022-10-18T10:08:42;8.70;;;4.78;;
55372;SDS011;41249;47.838;16.490;2022-10-18T10:11:38;8.23;;;4.50;;
55372;SDS011;41249;47.838;16.490;2022-10-18T10:14:14;12.32;;;5.72;;
55372;SDS011;41249;47.838;16.490;2022-10-18T10:16:52;7.22;;;4.90;;
55372;SDS011;41249;47.838;16.490;2022-10-18T10:19:29;11.63;;;5.35;;
55372;SDS011;41249;47.838;16.490;2022-10-18T10:22:04;6.82;;;4.88;;
55372;SDS011;41249;47.838;16.490;2022-10-18T10:24:42;10.98;;;4.72;;
55372;SDS011;41249;47.838;16.490;2022-10-18T10:27:18;9.63;;;5.57;;
55372;SDS011;41249;47.838;16.490;2022-10-18T10:29:51;11.10;;;5.20;;
55372;SDS011;41249;47.838;16.490;2022-10-18T10:32:22;8.10;;;5.57;;
55372;SDS011;41249;47.838;16.490;2022-10-18T10:34:56;14.57;;;5.43;;
55372;SDS011;41249;47.838;16.490;2022-10-18T10:43:04;11.15;;;4.95;;
55372;SDS011;41249;47.838;16.490;2022-10-18T10:46:01;8.43;;;5.40;;
55372;SDS011;41249;47.838;16.490;2022-10-18T10:48:30;6.88;;;5.40;;
55372;SDS011;41249;47.838;16.490;2022-10-18T10:51:06;9.35;;;5.70;;
55372;SDS011;41249;47.838;16.490;2022-10-18T10:56:20;11.17;;;6.33;;
55372;SDS011;41249;47.838;16.490;2022-10-18T10:58:53;9.95;;;5.95;;
55372;SDS011;41249;47.838;16.490;2022-10-18T11:01:31;9.65;;;5.63;;
55372;SDS011;41249;47.838;16.490;2022-10-18T11:04:00;8.15;;;5.68;;
55372;SDS011;41249;47.838;16.490;2022-10-18T11:06:40;10.52;;;6.25;;
55372;SDS011;41249;47.838;16.490;2022-10-18T11:09:32;8.82;;;5.72;;
55372;SDS011;41249;47.838;16.490;2022-10-18T11:12:20;9.60;;;6.13;;
55372;SDS011;41249;47.838;16.490;2022-10-18T11:20:17;6.90;;;5.07;;
55372;SDS011;41249;47.838;16.490;2022-10-18T11:25:14;9.80;;;7.18;;
55372;SDS011;41249;47.838;16.490;2022-10-18T11:27:45;7.82;;;6.13;;
55372;SDS011;41249;47.838;16.490;2022-10-18T11:33:40;9.15;;;6.07;;
55372;SDS011;41249;47.838;16.490;2022-10-18T11:39:34;11.75;;;6.32;;
55372;SDS011;41249;47.838;16.490;2022-10-18T11:42:10;8.43;;;5.95;;
55372;SDS011;41249;47.838;16.490;2022-10-18T11:44:45;9.55;;;6.22;;
55372;SDS011;41249;47.838;16.490;2022-10-18T11:56:15;8.63;;;5.95;;
55372;SDS011;41249;47.838;16.490;2022-10-18T12:01:50;8.18;;;5.93;;
55372;SDS011;41249;47.838;16.490;2022-10-18T12:04:26;7.10;;;5.97;;
55372;SDS011;41249;47.838;16.490;2022-10-18T12:07:14;12.55;;;6.28;;
55372;SDS011;41249;47.838;16.490;2022-10-18T12:09:50;10.15;;;6.53;;
55372;SDS011;41249;47.838;16.490;2022-10-18T12:12:23;8.43;;;6.05;;
55372;SDS011;41249;47.838;16.490;2022-10-18T12:14:56;9.73;;;5.70;;
55372;SDS011;41249;47.838;16.490;2022-10-18T12:17:30;11.63;;;6.60;;
55372;SDS011;41249;47.838;16.490;2022-10-18T12:20:16;10.07;;;6.40;;
55372;SDS011;41249;47.838;16.490;2022-10-18T12:22:51;8.95;;;6.10;;
55372;SDS011;41249;47.838;16.490;2022-10-18T12:25:19;11.60;;;7.63;;
55372;SDS011;41249;47.838;16.490;2022-10-18T12:27:58;11.02;;;6.47;;
55372;SDS011;41249;47.838;16.490;2022-10-18T12:30:50;12.75;;;6.68;;
55372;SDS011;41249;47.838;16.490;2022-10-18T12:33:26;9.18;;;6.13;;
55372;SDS011;41249;47.838;16.490;2022-10-18T12:36:10;9.73;;;6.47;;
55372;SDS011;41249;47.838;16.490;2022-10-18T12:42:43;7.78;;;5.85;;
55372;SDS011;41249;47.838;16.490;2022-10-18T12:45:22;9.85;;;7.05;;
55372;SDS011;41249;47.838;16.490;2022-10-18T12:47:54;8.98;;;6.00;;
55372;SDS011;41249;47.838;16.490;2022-10-18T12:50:31;9.48;;;6.25;;
55372;SDS011;41249;47.838;16.490;2022-10-18T12:53:18;10.23;;;6.80;;
55372;SDS011;41249;47.838;16.490;2022-10-18T12:55:51;10.65;;;6.35;;
55372;SDS011;41249;47.838;16.490;2022-10-18T13:01:04;9.15;;;6.43;;
55372;SDS011;41249;47.838;16.490;2022-10-18T13:03:39;8.30;;;6.13;;
55372;SDS011;41249;47.838;16.490;2022-10-18T13:06:16;8.52;;;6.25;;
55372;SDS011;41249;47.838;16.490;2022-10-18T13:08:43;8.85;;;6.43;;
55372;SDS011;41249;47.838;16.490;2022-10-18T13:21:55;8.27;;;6.47;;
55372;SDS011;41249;47.838;16.490;2022-10-18T13:24:32;8.02;;;6.43;;
55372;SDS011;41249;47.838;16.490;2022-10-18T13:27:18;8.52;;;6.05;;
55372;SDS011;41249;47.838;16.490;2022-10-18T13:38:22;7.20;;;5.47;;
55372;SDS011;41249;47.838;16.490;2022-10-18T13:41:11;6.30;;;5.50;;
55372;SDS011;41249;47.838;16.490;2022-10-18T13:43:57;7.88;;;5.90;;
55372;SDS011;41249;47.838;16.490;2022-10-18T13:52:19;9.45;;;6.20;;
55372;SDS011;41249;47.838;16.490;2022-10-18T14:00:30;13.50;;;5.95;;
55372;SDS011;41249;47.838;16.490;2022-10-18T14:06:24;8.40;;;5.80;;
55372;SDS011;41249;47.838;16.490;2022-10-18T14:15:13;8.85;;;6.50;;
55372;SDS011;41249;47.838;16.490;2022-10-18T14:17:44;7.97;;;5.85;;
55372;SDS011;41249;47.838;16.490;2022-10-18T14:20:14;7.05;;;5.45;;
55372;SDS011;41249;47.838;16.490;2022-10-18T14:23:20;12.73;;;6.05;;
55372;SDS011;41249;47.838;16.490;2022-10-18T14:25:50;8.23;;;6.28;;
55372;SDS011;41249;47.838;16.490;2022-10-18T14:28:31;8.00;;;6.32;;
55372;SDS011;41249;47.838;16.490;2022-10-18T14:31:17;15.65;;;6.00;;
55372;SDS011;41249;47.838;16.490;2022-10-18T14:33:46;10.43;;;5.88;;
55372;SDS011;41249;47.838;16.490;2022-10-18T14:36:24;10.13;;;6.25;;
55372;SDS011;41249;47.838;16.490;2022-10-18T14:38:53;11.30;;;6.53;;
55372;SDS011;41249;47.838;16.490;2022-10-18T14:41:29;8.45;;;6.00;;
55372;SDS011;41249;47.838;16.490;2022-10-18T14:49:09;12.27;;;6.53;;
55372;SDS011;41249;47.838;16.490;2022-10-18T14:51:39;10.15;;;5.97;;
55372;SDS011;41249;47.838;16.490;2022-10-18T14:54:09;11.23;;;6.70;;
55372;SDS011;41249;47.838;16.490;2022-10-18T14:56:44;9.18;;;6.35;;
55372;SDS011;41249;47.838;16.490;2022-10-18T14:59:13;8.75;;;6.47;;
55372;SDS011;41249;47.838;16.490;2022-10-18T15:02:11;8.02;;;6.30;;
55372;SDS011;41249;47.838;16.490;2022-10-18T15:04:36;11.23;;;7.07;;
55372;SDS011;41249;47.838;16.490;2022-10-18T15:07:04;13.35;;;6.43;;
55372;SDS011;41249;47.838;16.490;2022-10-18T15:09:33;8.55;;;6.75;;
55372;SDS011;41249;47.838;16.490;2022-10-18T15:12:02;12.93;;;6.63;;
55372;SDS011;41249;47.838;16.490;2022-10-18T15:14:31;11.57;;;6.28;;
55372;SDS011;41249;47.838;16.490;2022-10-18T15:17:07;12.52;;;6.47;;
55372;SDS011;41249;47.838;16.490;2022-10-18T15:19:58;8.35;;;6.53;;
55372;SDS011;41249;47.838;16.490;2022-10-18T15:22:32;12.50;;;6.85;;
55372;SDS011;41249;47.838;16.490;2022-10-18T15:27:51;8.48;;;6.78;;
55372;SDS011;41249;47.838;16.490;2022-10-18T15:30:22;11.65;;;6.65;;
55372;SDS011;41249;47.838;16.490;2022-10-18T15:32:54;10.75;;;6.68;;
55372;SDS011;41249;47.838;16.490;2022-10-18T15:35:29;10.80;;;7.20;;
55372;SDS011;41249;47.838;16.490;2022-10-18T15:37:58;11.52;;;7.88;;
55372;SDS011;41249;47.838;16.490;2022-10-18T15:40:32;11.15;;;7.65;;
55372;SDS011;41249;47.838;16.490;2022-10-18T15:43:01;14.45;;;7.45;;
55372;SDS011;41249;47.838;16.490;2022-10-18T15:45:35;11.05;;;8.60;;
55372;SDS011;41249;47.838;16.490;2022-10-18T15:50:43;13.80;;;8.18;;
55372;SDS011;41249;47.838;16.490;2022-10-18T15:55:47;13.93;;;8.50;;
55372;SDS011;41249;47.838;16.490;2022-10-18T15:58:29;14.90;;;11.20;;
55372;SDS011;41249;47.838;16.490;2022-10-18T16:01:04;13.82;;;10.05;;
55372;SDS011;41249;47.838;16.490;2022-10-18T16:03:39;17.85;;;9.32;;
55372;SDS011;41249;47.838;16.490;2022-10-18T16:06:08;12.77;;;9.82;;
55372;SDS011;41249;47.838;16.490;2022-10-18T16:08:41;13.15;;;9.88;;
55372;SDS011;41249;47.838;16.490;2022-10-18T16:11:16;14.18;;;10.07;;
55372;SDS011;41249;47.838;16.490;2022-10-18T16:13:47;16.83;;;9.77;;
55372;SDS011;41249;47.838;16.490;2022-10-18T16:18:43;14.30;;;10.40;;
55372;SDS011;41249;47.838;16.490;2022-10-18T16:23:50;15.20;;;10.32;;
55372;SDS011;41249;47.838;16.490;2022-10-18T16:26:17;13.50;;;10.38;;
55372;SDS011;41249;47.838;16.490;2022-10-18T16:28:44;17.95;;;10.65;;
55372;SDS011;41249;47.838;16.490;2022-10-18T16:31:16;15.55;;;10.27;;
55372;SDS011;41249;47.838;16.490;2022-10-18T16:33:44;13.70;;;10.13;;
55372;SDS011;41249;47.838;16.490;2022-10-18T16:36:13;13.98;;;10.23;;
55372;SDS011;41249;47.838;16.490;2022-10-18T16:38:44;12.40;;;10.55;;
55372;SDS011;41249;47.838;16.490;2022-10-18T16:41:11;13.52;;;9.63;;
55372;SDS011;41249;47.838;16.490;2022-10-18T16:43:41;15.05;;;10.25;;
55372;SDS011;41249;47.838;16.490;2022-10-18T16:46:30;13.05;;;9.02;;
55372;SDS011;41249;47.838;16.490;2022-10-18T16:48:57;16.63;;;11.15;;
55372;SDS011;41249;47.838;16.490;2022-10-18T16:51:25;14.55;;;10.20;;
55372;SDS011;41249;47.838;16.490;2022-10-18T16:53:52;14.75;;;9.82;;
55372;SDS011;41249;47.838;16.490;2022-10-18T16:56:28;12.57;;;9.50;;
55372;SDS011;41249;47.838;16.490;2022-10-18T16:58:57;16.70;;;9.82;;
55372;SDS011;41249;47.838;16.490;2022-10-18T17:01:25;16.58;;;10.02;;
55372;SDS011;41249;47.838;16.490;2022-10-18T17:03:51;12.80;;;9.15;;
55372;SDS011;41249;47.838;16.490;2022-10-18T17:08:55;12.88;;;8.93;;
55372;SDS011;41249;47.838;16.490;2022-10-18T17:11:22;11.82;;;8.65;;
55372;SDS011;41249;47.838;16.490;2022-10-18T17:13:50;15.23;;;9.30;;
55372;SDS011;41249;47.838;16.490;2022-10-18T17:16:20;11.73;;;7.43;;
55372;SDS011;41249;47.838;16.490;2022-10-18T17:18:59;14.07;;;8.60;;
55372;SDS011;41249;47.838;16.490;2022-10-18T17:21:27;12.50;;;8.98;;
55372;SDS011;41249;47.838;16.490;2022-10-18T17:23:55;12.05;;;8.88;;
55372;SDS011;41249;47.838;16.490;2022-10-18T17:26:26;12.35;;;9.00;;
55372;SDS011;41249;47.838;16.490;2022-10-18T17:28:56;12.23;;;8.50;;
55372;SDS011;41249;47.838;16.490;2022-10-18T17:31:26;11.40;;;8.80;;